createdAt,value
2019-03-25T00:01:14.270Z,24.95
2019-03-25T00:03:42.945Z,24.40
2019-03-25T00:06:12.507Z,24.40
2019-03-25T00:08:40.847Z,23.60
2019-03-25T00:11:09.494Z,24.25
2019-03-25T00:13:37.781Z,26.42
2019-03-25T00:16:06.447Z,27.87
2019-03-25T00:18:35.509Z,25.80
2019-03-25T00:21:04.376Z,28.77
2019-03-25T00:23:34.656Z,27.40
2019-03-25T00:26:03.138Z,29.52
2019-03-25T00:28:33.780Z,28.65
2019-03-25T00:31:02.263Z,25.30
2019-03-25T00:33:32.002Z,27.62
2019-03-25T00:36:00.268Z,25.57
2019-03-25T00:38:29.753Z,26.17
2019-03-25T00:40:58.097Z,25.10
2019-03-25T00:43:26.842Z,24.30
2019-03-25T00:45:55.425Z,23.90
2019-03-25T00:48:24.235Z,23.98
2019-03-25T00:50:52.793Z,23.98
2019-03-25T00:53:21.157Z,26.33
2019-03-25T00:55:49.921Z,25.60
2019-03-25T00:58:18.176Z,27.13
2019-03-25T01:00:46.628Z,24.15
2019-03-25T01:03:15.136Z,24.57
2019-03-25T01:05:43.883Z,24.67
2019-03-25T01:08:16.060Z,25.37
2019-03-25T01:10:44.460Z,25.25
2019-03-25T01:13:14.286Z,26.00
2019-03-25T01:15:44.243Z,23.18
2019-03-25T01:18:17.218Z,23.98
2019-03-25T01:20:50.121Z,21.75
2019-03-25T01:23:18.498Z,23.07
2019-03-25T01:25:47.080Z,21.95
2019-03-25T01:28:15.378Z,23.85
2019-03-25T01:30:43.613Z,21.62
2019-03-25T01:33:14.195Z,21.70
2019-03-25T01:35:42.714Z,23.40
2019-03-25T01:38:11.359Z,23.38
2019-03-25T01:40:40.111Z,21.48
2019-03-25T01:43:08.820Z,20.92
2019-03-25T01:45:37.545Z,20.92
2019-03-25T01:48:06.241Z,22.02
2019-03-25T01:50:34.771Z,22.55
2019-03-25T01:53:03.076Z,20.50
2019-03-25T01:55:31.332Z,20.90
2019-03-25T01:57:57.771Z,22.70
2019-03-25T02:00:27.287Z,20.52
2019-03-25T02:02:56.582Z,20.82
2019-03-25T02:05:24.879Z,24.50
2019-03-25T02:07:53.115Z,23.40
2019-03-25T02:10:21.512Z,22.40
2019-03-25T02:12:50.198Z,23.40
2019-03-25T02:15:19.106Z,22.50
2019-03-25T02:17:47.530Z,23.35
2019-03-25T02:20:25.963Z,23.90
2019-03-25T02:22:46.616Z,22.45
2019-03-25T02:25:25.393Z,23.20
2019-03-25T02:27:48.120Z,22.13
2019-03-25T02:30:16.780Z,23.65
2019-03-25T02:32:45.373Z,22.73
2019-03-25T02:35:14.033Z,23.65
2019-03-25T02:37:42.677Z,22.62
2019-03-25T02:40:11.454Z,24.02
2019-03-25T02:42:40.110Z,23.07
2019-03-25T02:45:11.785Z,23.92
2019-03-25T02:47:40.007Z,22.05
2019-03-25T02:50:09.129Z,21.80
2019-03-25T02:52:39.733Z,21.23
2019-03-25T02:55:08.612Z,21.68
2019-03-25T02:57:37.129Z,21.25
2019-03-25T03:00:08.660Z,22.87
2019-03-25T03:02:39.953Z,21.85
2019-03-25T03:05:08.721Z,20.77
2019-03-25T03:07:38.346Z,20.32
2019-03-25T03:10:07.066Z,21.55
2019-03-25T03:12:37.010Z,21.55
2019-03-25T03:15:06.693Z,21.82
2019-03-25T03:17:36.970Z,21.23
2019-03-25T03:20:06.744Z,20.80
2019-03-25T03:22:37.085Z,22.10
2019-03-25T03:25:06.617Z,20.55
2019-03-25T03:27:36.769Z,19.35
2019-03-25T03:30:06.153Z,20.48
2019-03-25T03:32:34.705Z,23.47
2019-03-25T03:35:03.333Z,21.15
2019-03-25T03:37:36.278Z,21.82
2019-03-25T03:40:05.123Z,22.37
2019-03-25T03:42:33.888Z,22.02
2019-03-25T03:45:06.949Z,22.13
2019-03-25T03:47:35.830Z,21.62
2019-03-25T03:50:05.753Z,21.42
2019-03-25T03:52:35.281Z,22.00
2019-03-25T03:55:05.120Z,21.65
2019-03-25T03:57:39.568Z,21.52
2019-03-25T04:00:11.999Z,23.85
2019-03-25T04:02:41.455Z,22.20
2019-03-25T04:05:09.703Z,22.50
2019-03-25T04:07:38.402Z,22.90
2019-03-25T04:10:07.271Z,23.27
2019-03-25T04:12:37.329Z,24.18
2019-03-25T04:15:05.946Z,24.63
2019-03-25T04:17:35.276Z,21.40
2019-03-25T04:20:05.335Z,24.25
2019-03-25T04:22:39.299Z,23.50
2019-03-25T04:25:09.036Z,24.57
2019-03-25T04:27:38.425Z,24.45
2019-03-25T04:30:07.220Z,23.45
2019-03-25T04:32:40.454Z,23.10
2019-03-25T04:35:09.288Z,24.80
2019-03-25T04:37:37.555Z,23.85
2019-03-25T04:40:06.684Z,23.87
2019-03-25T04:42:35.334Z,24.15
2019-03-25T04:45:03.921Z,23.42
2019-03-25T04:47:32.213Z,23.05
2019-03-25T04:50:05.317Z,22.62
2019-03-25T04:52:33.968Z,23.73
2019-03-25T04:55:03.563Z,24.05
2019-03-25T04:57:32.980Z,22.73
2019-03-25T05:00:01.307Z,22.37
2019-03-25T05:02:30.038Z,21.93
2019-03-25T05:04:58.341Z,22.32
2019-03-25T05:07:26.934Z,22.85
2019-03-25T05:09:56.383Z,23.77
2019-03-25T05:12:28.832Z,22.50
2019-03-25T05:14:57.891Z,22.73
2019-03-25T05:17:31.069Z,23.52
2019-03-25T05:20:01.029Z,24.50
2019-03-25T05:22:29.639Z,22.48
2019-03-25T05:24:59.224Z,21.65
2019-03-25T05:27:27.893Z,24.25
2019-03-25T05:29:57.377Z,23.10
2019-03-25T05:32:26.033Z,21.30
2019-03-25T05:34:54.386Z,22.52
2019-03-25T05:37:23.008Z,23.27
2019-03-25T05:39:51.599Z,24.50
2019-03-25T05:42:22.082Z,23.18
2019-03-25T05:44:50.339Z,22.52
2019-03-25T05:47:20.287Z,22.05
2019-03-25T05:49:48.984Z,20.80
2019-03-25T05:52:19.946Z,21.75
2019-03-25T05:54:48.324Z,22.60
2019-03-25T05:57:20.308Z,22.85
2019-03-25T05:59:49.873Z,24.05
2019-03-25T06:02:18.131Z,21.12
2019-03-25T06:04:46.754Z,26.30
2019-03-25T06:07:19.645Z,22.37
2019-03-25T06:09:50.717Z,25.35
2019-03-25T06:12:19.329Z,25.95
2019-03-25T06:14:47.673Z,24.00
2019-03-25T06:17:15.929Z,21.93
2019-03-25T06:19:44.582Z,25.37
2019-03-25T06:22:12.924Z,24.10
2019-03-25T06:24:41.531Z,24.77
2019-03-25T06:27:14.267Z,25.62
2019-03-25T06:29:44.766Z,26.42
2019-03-25T06:32:14.192Z,27.07
2019-03-25T06:34:42.470Z,26.07
2019-03-25T06:37:11.246Z,26.17
2019-03-25T06:39:39.861Z,30.95
2019-03-25T06:42:08.524Z,29.07
2019-03-25T06:44:37.358Z,30.32
2019-03-25T06:47:10.837Z,37.17
2019-03-25T06:49:40.366Z,39.35
2019-03-25T06:52:09.013Z,41.60
2019-03-25T06:54:37.675Z,38.00
2019-03-25T06:57:07.202Z,35.98
2019-03-25T06:59:36.761Z,34.75
2019-03-25T07:02:05.494Z,34.35
2019-03-25T07:04:34.134Z,34.00
2019-03-25T07:07:02.674Z,35.35
2019-03-25T07:09:31.030Z,35.58
2019-03-25T07:11:59.866Z,33.90
2019-03-25T07:14:29.581Z,34.45
2019-03-25T07:16:57.956Z,32.30
2019-03-25T07:19:26.603Z,31.70
2019-03-25T07:21:54.972Z,30.60
2019-03-25T07:24:23.508Z,29.70
2019-03-25T07:26:51.896Z,30.47
2019-03-25T07:29:20.532Z,29.27
2019-03-25T07:31:49.181Z,30.57
2019-03-25T07:34:17.491Z,29.43
2019-03-25T07:36:45.743Z,28.60
2019-03-25T07:39:14.422Z,28.87
2019-03-25T07:41:43.079Z,28.73
2019-03-25T07:44:11.406Z,27.10
2019-03-25T07:46:40.033Z,28.03
2019-03-25T07:49:08.350Z,26.10
2019-03-25T07:51:36.621Z,25.53
2019-03-25T07:54:05.270Z,26.50
2019-03-25T07:56:33.608Z,25.80
2019-03-25T07:59:02.297Z,27.17
2019-03-25T08:01:30.582Z,26.10
2019-03-25T08:03:59.351Z,28.80
2019-03-25T08:06:28.408Z,27.17
2019-03-25T08:09:03.622Z,23.67
2019-03-25T08:11:26.783Z,24.70
2019-03-25T08:13:55.129Z,23.83
2019-03-25T08:16:23.569Z,24.80
2019-03-25T08:18:52.197Z,26.47
2019-03-25T08:21:20.843Z,22.90
2019-03-25T08:23:49.127Z,27.00
2019-03-25T08:26:17.404Z,24.40
2019-03-25T08:28:46.068Z,24.40
2019-03-25T08:31:14.392Z,24.40
2019-03-25T08:33:43.803Z,24.93
2019-03-25T08:36:12.074Z,25.13
2019-03-25T08:38:40.451Z,23.73
2019-03-25T08:41:09.081Z,25.40
2019-03-25T08:43:37.371Z,24.83
2019-03-25T08:46:05.663Z,24.00
2019-03-25T08:48:33.940Z,24.70
2019-03-25T08:51:02.342Z,22.83
2019-03-25T08:53:30.880Z,22.20
2019-03-25T08:55:59.233Z,23.10
2019-03-25T08:58:27.797Z,22.47
2019-03-25T09:00:57.473Z,23.40
2019-03-25T09:03:26.071Z,23.90
2019-03-25T09:05:54.663Z,24.07
2019-03-25T09:08:23.129Z,24.77
2019-03-25T09:10:51.707Z,24.27
2019-03-25T09:13:20.043Z,24.03
2019-03-25T09:15:48.617Z,24.40
2019-03-25T09:18:18.264Z,22.93
2019-03-25T09:20:46.796Z,24.70
2019-03-25T09:23:15.123Z,24.87
2019-03-25T09:25:43.462Z,25.10
2019-03-25T09:28:23.401Z,24.20
2019-03-25T09:31:14.570Z,23.40
2019-03-25T09:33:43.571Z,24.90
2019-03-25T09:36:12.024Z,23.63
2019-03-25T09:38:40.494Z,24.63
2019-03-25T09:41:09.254Z,23.00
2019-03-25T09:43:37.769Z,23.57
2019-03-25T09:46:06.311Z,23.40
2019-03-25T09:48:34.722Z,26.07
2019-03-25T09:51:05.103Z,25.43
2019-03-25T09:53:33.592Z,22.80
2019-03-25T09:56:02.003Z,23.80
2019-03-25T09:58:36.244Z,20.90
2019-03-25T10:01:01.031Z,22.53
2019-03-25T10:03:29.268Z,24.07
2019-03-25T10:05:59.038Z,22.27
2019-03-25T10:08:28.830Z,21.57
2019-03-25T10:10:57.587Z,23.07
2019-03-25T10:13:26.128Z,22.13
2019-03-25T10:15:54.412Z,24.20
2019-03-25T10:18:23.103Z,23.67
2019-03-25T10:20:51.750Z,24.20
2019-03-25T10:23:20.056Z,23.30
2019-03-25T10:25:48.343Z,24.60
2019-03-25T10:28:16.586Z,23.80
2019-03-25T10:30:45.363Z,24.60
2019-03-25T10:33:13.921Z,24.63
2019-03-25T10:35:42.746Z,23.60
2019-03-25T10:38:19.413Z,23.70
2019-03-25T10:40:41.508Z,23.10
2019-03-25T10:43:09.881Z,22.77
2019-03-25T10:45:38.235Z,22.63
2019-03-25T10:48:06.892Z,24.50
2019-03-25T10:50:35.281Z,22.53
2019-03-25T10:53:03.691Z,23.70
2019-03-25T10:55:34.547Z,22.87
2019-03-25T10:58:03.497Z,22.63
2019-03-25T11:00:32.198Z,22.40
2019-03-25T11:03:00.664Z,21.03
2019-03-25T11:05:28.877Z,21.77
2019-03-25T11:07:57.255Z,21.37
2019-03-25T11:10:25.910Z,21.83
2019-03-25T11:12:56.667Z,20.97
2019-03-25T11:15:25.455Z,23.30
2019-03-25T11:17:53.994Z,21.60
2019-03-25T11:20:22.277Z,21.50
2019-03-25T11:22:50.589Z,20.60
2019-03-25T11:25:21.615Z,22.27
2019-03-25T11:27:54.415Z,22.00
2019-03-25T11:30:47.980Z,20.73
2019-03-25T11:33:16.410Z,19.27
2019-03-25T11:35:44.756Z,20.90
2019-03-25T11:38:13.321Z,20.67
2019-03-25T11:40:41.574Z,19.30
2019-03-25T11:43:09.831Z,19.43
2019-03-25T11:45:38.387Z,17.20
2019-03-25T11:48:06.901Z,18.90
2019-03-25T11:50:35.261Z,16.93
2019-03-25T11:53:03.502Z,15.97
2019-03-25T11:55:32.069Z,15.93
2019-03-25T11:58:00.799Z,17.27
2019-03-25T12:00:29.432Z,16.53
2019-03-25T12:02:58.165Z,15.80
2019-03-25T12:05:26.872Z,15.20
2019-03-25T12:07:55.152Z,16.33
2019-03-25T12:10:27.494Z,16.30
2019-03-25T12:12:56.236Z,16.60
2019-03-25T12:15:24.475Z,16.57
2019-03-25T12:17:53.594Z,16.20
2019-03-25T12:20:21.859Z,15.60
2019-03-25T12:22:53.508Z,14.63
2019-03-25T12:25:22.042Z,14.70
2019-03-25T12:27:50.368Z,14.97
2019-03-25T12:30:19.230Z,14.23
2019-03-25T12:32:47.806Z,14.60
2019-03-25T12:35:16.420Z,14.57
2019-03-25T12:37:44.680Z,14.30
2019-03-25T12:40:13.223Z,14.63
2019-03-25T12:42:43.654Z,14.67
2019-03-25T12:45:12.403Z,15.17
2019-03-25T12:47:40.643Z,14.60
2019-03-25T12:50:09.366Z,14.43
2019-03-25T12:52:43.237Z,14.90
2019-03-25T12:55:12.316Z,13.97
2019-03-25T12:57:39.741Z,13.20
2019-03-25T13:00:10.140Z,13.20
2019-03-25T13:02:42.162Z,11.93
2019-03-25T13:05:10.688Z,15.37
2019-03-25T13:07:39.097Z,13.83
2019-03-25T13:10:07.560Z,12.97
2019-03-25T13:12:37.756Z,14.50
2019-03-25T13:15:07.111Z,16.47
2019-03-25T13:17:35.591Z,12.77
2019-03-25T13:20:04.625Z,13.03
2019-03-25T13:22:34.540Z,12.70
2019-03-25T13:25:03.797Z,13.20
2019-03-25T13:27:32.092Z,13.47
2019-03-25T13:30:00.564Z,13.20
2019-03-25T13:32:30.961Z,12.83
2019-03-25T13:34:59.691Z,13.77
2019-03-25T13:37:28.396Z,14.30
2019-03-25T13:39:56.930Z,11.73
2019-03-25T13:42:31.764Z,12.93
2019-03-25T13:45:00.156Z,13.47
2019-03-25T13:47:28.822Z,13.47
2019-03-25T13:49:57.442Z,11.80
2019-03-25T13:52:27.328Z,11.47
2019-03-25T13:54:56.134Z,12.63
2019-03-25T13:57:24.745Z,11.87
2019-03-25T14:00:02.970Z,12.40
2019-03-25T14:02:24.444Z,12.83
2019-03-25T14:04:56.198Z,11.87
2019-03-25T14:07:25.645Z,11.90
2019-03-25T14:09:55.174Z,11.70
2019-03-25T14:12:24.687Z,12.17
2019-03-25T14:14:56.335Z,12.00
2019-03-25T14:17:28.188Z,11.40
2019-03-25T14:19:56.828Z,12.20
2019-03-25T14:22:25.484Z,12.67
2019-03-25T14:24:53.901Z,11.70
2019-03-25T14:27:22.424Z,13.60
2019-03-25T14:29:50.777Z,10.93
2019-03-25T14:32:19.048Z,11.37
2019-03-25T14:34:48.143Z,9.60
2019-03-25T14:37:18.583Z,10.23
2019-03-25T14:39:47.109Z,9.77
2019-03-25T14:42:15.449Z,10.30
2019-03-25T14:44:44.979Z,11.30
2019-03-25T14:47:13.637Z,9.47
2019-03-25T14:49:41.892Z,10.20
2019-03-25T14:52:10.542Z,9.77
2019-03-25T14:54:40.131Z,9.40
2019-03-25T14:57:16.427Z,10.80
2019-03-25T14:59:45.989Z,11.57
2019-03-25T15:02:15.602Z,10.40
2019-03-25T15:04:45.109Z,9.77
2019-03-25T15:07:16.643Z,11.27
2019-03-25T15:09:47.024Z,10.57
2019-03-25T15:12:15.728Z,10.53
2019-03-25T15:14:44.339Z,10.57
2019-03-25T15:17:13.948Z,10.87
2019-03-25T15:19:42.700Z,9.97
2019-03-25T15:22:11.562Z,12.00
2019-03-25T15:24:39.898Z,10.00
2019-03-25T15:27:08.663Z,9.77
2019-03-25T15:29:37.250Z,10.00
2019-03-25T15:32:05.579Z,10.50
2019-03-25T15:34:33.834Z,10.67
2019-03-25T15:37:04.657Z,12.33
2019-03-25T15:39:33.254Z,12.40
2019-03-25T15:42:02.839Z,13.50
2019-03-25T15:44:31.422Z,13.17
2019-03-25T15:46:59.693Z,12.87
2019-03-25T15:49:28.014Z,12.50
2019-03-25T15:51:57.032Z,12.43
2019-03-25T15:54:25.346Z,13.00
2019-03-25T15:56:57.574Z,11.70
2019-03-25T15:59:26.408Z,12.80
2019-03-25T16:01:54.776Z,12.33
2019-03-25T16:04:24.276Z,12.93
2019-03-25T16:06:54.080Z,13.10
2019-03-25T16:09:22.697Z,13.17
2019-03-25T16:11:52.252Z,12.93
2019-03-25T16:14:20.452Z,13.40
2019-03-25T16:16:49.287Z,13.68
2019-03-25T16:19:17.901Z,12.80
2019-03-25T16:21:46.722Z,13.00
2019-03-25T16:24:15.235Z,14.43
2019-03-25T16:26:44.590Z,13.57
2019-03-25T16:29:13.088Z,13.35
2019-03-25T16:31:41.720Z,13.18
2019-03-25T16:34:10.043Z,13.55
2019-03-25T16:36:38.700Z,14.35
2019-03-25T16:39:07.789Z,13.83
2019-03-25T16:41:38.448Z,14.55
2019-03-25T16:44:06.800Z,13.75
2019-03-25T16:46:35.116Z,13.55
2019-03-25T16:49:03.465Z,13.75
2019-03-25T16:51:32.227Z,14.90
2019-03-25T16:54:02.125Z,14.93
2019-03-25T16:56:31.040Z,14.95
2019-03-25T16:58:59.336Z,15.03
2019-03-25T17:01:28.011Z,15.80
2019-03-25T17:03:56.220Z,14.60
2019-03-25T17:06:25.865Z,14.93
2019-03-25T17:08:54.502Z,16.37
2019-03-25T17:11:22.779Z,15.83
2019-03-25T17:13:51.398Z,16.05
2019-03-25T17:16:19.661Z,14.45
2019-03-25T17:18:47.955Z,15.70
2019-03-25T17:21:17.527Z,17.32
2019-03-25T17:23:46.667Z,17.27
2019-03-25T17:26:15.304Z,16.60
2019-03-25T17:28:43.516Z,18.62
2019-03-25T17:31:20.555Z,17.98
2019-03-25T17:33:43.787Z,18.45
2019-03-25T17:36:12.096Z,18.05
2019-03-25T17:38:40.745Z,17.85
2019-03-25T17:41:10.499Z,20.17
2019-03-25T17:43:38.941Z,21.15
2019-03-25T17:46:07.483Z,21.15
2019-03-25T17:48:36.237Z,24.25
2019-03-25T17:51:07.959Z,41.40
2019-03-25T17:53:36.783Z,27.02
2019-03-25T17:56:10.897Z,23.70
2019-03-25T17:58:39.336Z,23.02
2019-03-25T18:01:15.600Z,25.27
2019-03-25T18:03:44.057Z,22.90
2019-03-25T18:06:14.254Z,21.12
2019-03-25T18:08:43.930Z,25.05
2019-03-25T18:11:12.221Z,23.05
2019-03-25T18:13:40.974Z,23.30
2019-03-25T18:16:09.490Z,23.15
2019-03-25T18:18:39.344Z,24.25
2019-03-25T18:21:07.703Z,23.47
2019-03-25T18:23:35.952Z,23.35
2019-03-25T18:26:04.201Z,21.33
2019-03-25T18:28:32.476Z,22.95
2019-03-25T18:31:04.342Z,22.67
2019-03-25T18:33:33.918Z,21.80
2019-03-25T18:36:02.388Z,22.70
2019-03-25T18:38:30.942Z,21.85
2019-03-25T18:41:00.442Z,24.32
2019-03-25T18:43:29.210Z,26.10
2019-03-25T18:45:58.114Z,26.20
2019-03-25T18:48:27.350Z,26.50
2019-03-25T18:50:55.573Z,26.85
2019-03-25T18:53:23.849Z,29.10
2019-03-25T18:55:52.175Z,27.87
2019-03-25T18:58:23.744Z,30.40
2019-03-25T19:00:52.895Z,24.67
2019-03-25T19:03:21.788Z,23.90
2019-03-25T19:05:50.323Z,22.55
2019-03-25T19:08:19.474Z,21.77
2019-03-25T19:10:47.960Z,20.97
2019-03-25T19:13:16.211Z,20.70
2019-03-25T19:15:44.554Z,20.43
2019-03-25T19:18:13.476Z,20.02
2019-03-25T19:20:41.924Z,21.15
2019-03-25T19:23:10.543Z,20.10
2019-03-25T19:25:38.964Z,20.70
2019-03-25T19:28:07.212Z,21.90
2019-03-25T19:30:35.773Z,22.07
2019-03-25T19:33:04.081Z,20.92
2019-03-25T19:35:32.406Z,21.68
2019-03-25T19:38:01.546Z,20.45
2019-03-25T19:40:30.091Z,20.20
2019-03-25T19:42:58.437Z,20.97
2019-03-25T19:45:27.059Z,20.27
2019-03-25T19:47:55.379Z,19.02
2019-03-25T19:50:23.904Z,18.30
2019-03-25T19:52:52.332Z,19.15
2019-03-25T19:55:20.965Z,18.23
2019-03-25T19:57:49.343Z,18.48
2019-03-25T20:00:24.211Z,16.87
2019-03-25T20:02:53.118Z,18.07
2019-03-25T20:05:22.678Z,16.82
2019-03-25T20:07:51.894Z,17.10
2019-03-25T20:10:29.535Z,17.90
2019-03-25T20:12:58.520Z,19.82
2019-03-25T20:15:26.961Z,19.07
2019-03-25T20:17:57.025Z,19.52
2019-03-25T20:20:25.591Z,20.60
2019-03-25T20:22:54.680Z,21.80
2019-03-25T20:25:23.675Z,21.77
2019-03-25T20:27:53.893Z,22.15
2019-03-25T20:30:22.978Z,21.45
2019-03-25T20:32:51.561Z,21.23
2019-03-25T20:35:20.117Z,21.93
2019-03-25T20:37:48.398Z,19.85
2019-03-25T20:40:18.755Z,18.32
2019-03-25T20:42:47.853Z,17.87
2019-03-25T20:45:18.315Z,17.60
2019-03-25T20:47:46.776Z,16.45
2019-03-25T20:50:15.086Z,16.67
2019-03-25T20:52:43.302Z,16.75
2019-03-25T20:55:12.050Z,15.75
2019-03-25T20:57:40.789Z,15.85
2019-03-25T21:00:10.830Z,17.02
2019-03-25T21:02:45.396Z,15.23
2019-03-25T21:05:11.717Z,15.63
2019-03-25T21:07:40.382Z,15.25
2019-03-25T21:10:09.174Z,15.35
2019-03-25T21:12:38.725Z,14.55
2019-03-25T21:15:08.218Z,13.25
2019-03-25T21:17:36.731Z,13.88
2019-03-25T21:20:05.514Z,14.40
2019-03-25T21:22:34.551Z,13.58
2019-03-25T21:25:03.797Z,14.83
2019-03-25T21:27:32.316Z,14.60
2019-03-25T21:30:01.428Z,13.98
2019-03-25T21:32:31.351Z,14.65
2019-03-25T21:35:00.154Z,14.60
2019-03-25T21:37:29.032Z,14.15
2019-03-25T21:39:57.391Z,14.38
2019-03-25T21:42:28.983Z,14.40
2019-03-25T21:44:56.148Z,16.02
2019-03-25T21:47:25.238Z,15.45
2019-03-25T21:49:54.207Z,16.17
2019-03-25T21:52:23.005Z,15.58
2019-03-25T21:54:52.015Z,15.95
2019-03-25T21:57:20.284Z,14.95
2019-03-25T21:59:50.289Z,15.68
2019-03-25T22:02:18.727Z,15.43
2019-03-25T22:04:47.142Z,15.65
2019-03-25T22:07:15.923Z,15.93
2019-03-25T22:09:44.538Z,15.75
2019-03-25T22:12:13.262Z,15.45
2019-03-25T22:14:44.632Z,15.08
2019-03-25T22:17:13.000Z,16.40
2019-03-25T22:19:41.570Z,14.43
2019-03-25T22:22:11.173Z,16.20
2019-03-25T22:24:40.237Z,15.55
2019-03-25T22:27:08.621Z,16.00
2019-03-25T22:29:37.211Z,16.35
2019-03-25T22:32:05.611Z,16.00
2019-03-25T22:34:34.163Z,17.07
2019-03-25T22:37:02.458Z,15.35
2019-03-25T22:39:33.241Z,16.50
2019-03-25T22:42:07.574Z,17.40
2019-03-25T22:44:35.910Z,14.53
2019-03-25T22:47:04.621Z,15.70
2019-03-25T22:49:33.247Z,16.48
2019-03-25T22:52:01.869Z,17.52
2019-03-25T22:54:30.217Z,18.67
2019-03-25T22:57:03.846Z,18.65
2019-03-25T22:59:32.431Z,19.30
2019-03-25T23:02:02.113Z,18.90
2019-03-25T23:04:30.355Z,18.48
2019-03-25T23:06:59.400Z,20.88
2019-03-25T23:09:28.400Z,21.00
2019-03-25T23:12:04.481Z,20.77
2019-03-25T23:14:32.981Z,19.85
2019-03-25T23:17:07.331Z,23.38
2019-03-25T23:19:38.625Z,24.32
2019-03-25T23:22:06.816Z,23.18
2019-03-25T23:24:36.781Z,20.52
2019-03-25T23:27:06.279Z,20.23
2019-03-25T23:29:37.816Z,22.95
2019-03-25T23:32:06.467Z,26.73
2019-03-25T23:34:35.194Z,26.77
2019-03-25T23:37:04.069Z,27.65
2019-03-25T23:39:33.047Z,26.12
2019-03-25T23:42:02.824Z,25.77
2019-03-25T23:44:31.549Z,25.85
2019-03-25T23:47:00.208Z,21.87
2019-03-25T23:49:28.890Z,24.67
2019-03-25T23:51:59.247Z,26.52
2019-03-25T23:54:27.907Z,26.77
2019-03-25T23:56:58.671Z,24.10
2019-03-25T23:59:27.300Z,22.30
